Muskrat Dam Airport
CZMD : now visible

Airfield :











YOU CAN JOIN US ON...

 
LOGIN :

Register | Disclaimer

   EN    FR    IT 

 









Legend :    VFR   Marginal VFR   IFR   Intensive IFR   Very Intensive IFR
Visi :
Ceiling :
>= 8 km
>= 3000ft
5 to 8 km
1000 to 3000 ft
1500m to 5 km
500 to 1000 ft
800 to 1500m
200 to 500 ft
< 800m
< 200 ft
Symbols :   Thunderstorms  Fog  Heavy snow  Heavy precipitations  Wind > 20 kt






- Airport Elevation : 911 ft
- IATA code : MSA


CZMD - Muskrat Dam

CURRENT METAR :
  • 071800Z AUTO 23014G24KT 9SM BKN091 OVC110 04/M01 A3007 RMK SLP203

EXPIRED METARs :
  • 071700Z AUTO 23015G27KT 9SM FEW140 SCT190 04/M01 A3012 RMK SLP219
  • 071600Z AUTO 23015G21KT 9SM BKN022 OVC190 02/M00 A3017 RMK SLP238

TAF TAF CZMD
Valid from the 07 at 16:00 until the 07 at 22:00 UTC


071540Z 0716/0722 23010G20KT P6SM FEW015
TEMPO 0716/0718 BKN015
BECMG 0716/0718 24020G30KT
FM071900 24020G30KT 6SM -SHRASN BR SCT012 OVC030 RMK FCST BASED ON AUTO OBS. NXT FCST BY 081000Z
CZWG FIR / North America



MET'MAP, your aeronautical weather chart ! - Copyright ORBIFLY December 2007 - Disclaimer

ORBIFLY MET'MAP TEAM :

Programming & Development : Alexandra Zaïnal
Original concept : Baudouin d'Aumeries
Technical & hardware support : Manuel Goepfert
Assistance : Marc-Olivier Méhu




SOURCES & CREDITS :

   NOAA       Earth
Advisory